createdAt,value
2022-10-02T00:01:48.287Z,11.14
2022-10-02T00:04:37.914Z,11.16
2022-10-02T00:07:07.415Z,11.05
2022-10-02T00:09:40.844Z,11.06
2022-10-02T00:12:11.412Z,11.08
2022-10-02T00:14:40.511Z,11.04
2022-10-02T00:17:11.430Z,11.03
2022-10-02T00:19:38.110Z,11.02
2022-10-02T00:22:14.650Z,11.04
2022-10-02T00:24:46.176Z,10.97
2022-10-02T00:27:38.885Z,10.97
2022-10-02T00:30:06.619Z,10.98
2022-10-02T00:32:55.044Z,11.04
2022-10-02T00:35:39.506Z,10.90
2022-10-02T00:38:27.642Z,10.98
2022-10-02T00:41:12.509Z,10.92
2022-10-02T00:44:03.430Z,10.90
2022-10-02T00:46:42.031Z,10.88
2022-10-02T00:49:29.471Z,10.84
2022-10-02T00:52:18.098Z,10.82
2022-10-02T00:55:22.798Z,10.79
2022-10-02T00:58:05.334Z,10.78
2022-10-02T01:00:31.972Z,10.82
2022-10-02T01:03:11.287Z,10.75
2022-10-02T01:05:38.241Z,10.77
2022-10-02T01:08:06.701Z,10.80
2022-10-02T01:10:34.462Z,10.79
2022-10-02T01:13:01.058Z,10.68
2022-10-02T01:15:40.577Z,10.72
2022-10-02T01:18:07.994Z,10.81
2022-10-02T01:20:42.501Z,10.76
2022-10-02T01:23:45.763Z,10.79
2022-10-02T01:26:12.440Z,10.89
2022-10-02T01:28:39.658Z,10.85
2022-10-02T01:31:12.663Z,10.78
2022-10-02T01:33:41.807Z,10.78
2022-10-02T01:36:12.837Z,10.77
2022-10-02T01:38:40.472Z,10.77
2022-10-02T01:41:11.317Z,10.78
2022-10-02T01:43:53.809Z,10.69
2022-10-02T01:46:35.667Z,10.64
2022-10-02T01:49:31.741Z,10.55
2022-10-02T01:52:10.957Z,10.66
2022-10-02T01:55:01.323Z,10.66
2022-10-02T01:57:54.544Z,10.61
2022-10-02T02:00:24.554Z,10.67
2022-10-02T02:03:19.094Z,10.65
2022-10-02T02:05:56.389Z,10.60
2022-10-02T02:08:31.263Z,10.57
2022-10-02T02:11:18.627Z,10.57
2022-10-02T02:13:48.195Z,10.61
2022-10-02T02:16:45.268Z,10.54
2022-10-02T02:19:25.175Z,10.60
2022-10-02T02:22:00.022Z,10.57
2022-10-02T02:24:32.429Z,10.64
2022-10-02T02:27:00.877Z,10.60
2022-10-02T02:29:30.378Z,10.69
2022-10-02T02:31:58.265Z,10.67
2022-10-02T02:34:38.571Z,10.55
2022-10-02T02:37:09.735Z,10.62
2022-10-02T02:39:42.429Z,10.60
2022-10-02T02:42:13.615Z,10.57
2022-10-02T02:44:49.282Z,10.66
2022-10-02T02:47:24.061Z,10.64
2022-10-02T02:49:58.810Z,10.57
2022-10-02T02:52:33.493Z,10.60
2022-10-02T02:55:06.312Z,10.57
2022-10-02T02:57:38.465Z,10.57
2022-10-02T03:00:06.837Z,10.62
2022-10-02T03:02:33.728Z,10.61
2022-10-02T03:05:00.438Z,10.51
2022-10-02T03:07:27.193Z,10.57
2022-10-02T03:10:12.487Z,10.57
2022-10-02T03:12:54.579Z,10.53
2022-10-02T03:15:27.863Z,10.55
2022-10-02T03:18:14.669Z,10.62
2022-10-02T03:20:48.320Z,10.55
2022-10-02T03:23:56.562Z,10.56
2022-10-02T03:26:34.904Z,10.52
2022-10-02T03:29:03.003Z,10.62
2022-10-02T03:31:31.271Z,10.60
2022-10-02T03:33:59.405Z,10.67
2022-10-02T03:36:26.334Z,10.61
2022-10-02T03:39:19.939Z,10.56
2022-10-02T03:41:42.853Z,10.62
2022-10-02T03:44:09.462Z,10.60
2022-10-02T03:46:36.390Z,10.62
2022-10-02T03:49:03.169Z,10.65
2022-10-02T03:51:30.667Z,10.57
2022-10-02T03:53:57.345Z,10.55
2022-10-02T03:56:33.413Z,10.53
2022-10-02T03:59:01.613Z,10.55
2022-10-02T04:01:33.334Z,10.55
2022-10-02T04:04:18.548Z,10.50
2022-10-02T04:06:51.665Z,10.53
2022-10-02T04:09:41.103Z,10.46
2022-10-02T04:12:11.485Z,10.44
2022-10-02T04:14:49.316Z,10.49
2022-10-02T04:17:20.630Z,10.50
2022-10-02T04:19:53.664Z,10.38
2022-10-02T04:22:30.923Z,10.40
2022-10-02T04:25:05.621Z,10.47
2022-10-02T04:27:39.197Z,10.43
2022-10-02T04:30:14.401Z,10.30
2022-10-02T04:32:40.994Z,10.32
2022-10-02T04:35:33.200Z,10.29
2022-10-02T04:38:20.433Z,10.38
2022-10-02T04:41:12.150Z,10.30
2022-10-02T04:44:02.177Z,10.35
2022-10-02T04:46:49.280Z,10.34
2022-10-02T04:49:29.449Z,10.31
2022-10-02T04:52:24.447Z,10.20
2022-10-02T04:55:09.276Z,10.25
2022-10-02T04:57:52.446Z,10.21
2022-10-02T05:00:23.622Z,10.13
2022-10-02T05:03:01.643Z,10.16
2022-10-02T05:05:48.706Z,10.12
2022-10-02T05:08:33.618Z,10.00
2022-10-02T05:11:19.494Z,10.06
2022-10-02T05:14:15.270Z,10.01
2022-10-02T05:17:09.290Z,9.94
2022-10-02T05:19:57.566Z,9.90
2022-10-02T05:22:43.361Z,9.90
2022-10-02T05:37:57.631Z,10.18
2022-10-02T05:40:30.539Z,10.18
2022-10-02T05:43:07.080Z,10.19
2022-10-02T05:45:37.564Z,10.00
2022-10-02T05:48:15.993Z,10.16
2022-10-02T05:50:46.057Z,10.06
2022-10-02T05:53:35.223Z,10.15
2022-10-02T05:56:09.387Z,10.10
2022-10-02T05:58:45.797Z,10.14
2022-10-02T06:01:16.760Z,10.06
2022-10-02T06:03:55.902Z,10.08
2022-10-02T06:06:41.951Z,10.02
2022-10-02T06:09:19.537Z,10.15
2022-10-02T06:11:58.333Z,10.14
2022-10-02T06:14:39.666Z,10.17
2022-10-02T06:17:18.081Z,10.19
2022-10-02T06:20:13.072Z,10.25
2022-10-02T06:23:17.875Z,10.28
2022-10-02T06:25:52.518Z,10.35
2022-10-02T06:29:02.635Z,10.47
2022-10-02T06:31:49.586Z,10.50
2022-10-02T06:34:16.355Z,10.47
2022-10-02T06:37:11.456Z,10.54
2022-10-02T06:40:31.066Z,10.49
2022-10-02T06:43:05.670Z,10.54
2022-10-02T06:45:58.935Z,10.52
2022-10-02T06:48:40.690Z,10.65
2022-10-02T06:51:45.235Z,10.74
2022-10-02T06:54:22.322Z,10.86
2022-10-02T06:57:11.732Z,11.00
2022-10-02T06:59:45.160Z,11.12
2022-10-02T07:02:17.428Z,11.22
2022-10-02T07:04:54.197Z,11.28
2022-10-02T07:07:23.990Z,11.20
2022-10-02T07:10:14.290Z,11.12
2022-10-02T07:12:47.303Z,11.22
2022-10-02T07:15:48.313Z,11.15
2022-10-02T07:18:26.526Z,11.27
2022-10-02T07:21:10.057Z,11.48
2022-10-02T07:24:02.245Z,11.60
2022-10-02T07:26:49.010Z,11.63
2022-10-02T07:29:35.616Z,11.65
2022-10-02T07:32:48.597Z,11.76
2022-10-02T07:35:27.584Z,11.80
2022-10-02T07:38:18.045Z,11.93
2022-10-02T07:41:09.306Z,12.06
2022-10-02T07:43:46.125Z,12.18
2022-10-02T07:46:21.232Z,12.23
2022-10-02T07:48:56.305Z,12.29
2022-10-02T07:51:52.184Z,12.32
2022-10-02T07:54:28.256Z,12.41
2022-10-02T07:56:59.310Z,12.34
2022-10-02T07:59:26.588Z,12.47
2022-10-02T08:01:53.499Z,12.47
2022-10-02T08:04:34.655Z,12.58
2022-10-02T08:07:07.423Z,12.61
2022-10-02T08:09:41.632Z,12.60
2022-10-02T08:12:28.939Z,12.69
2022-10-02T08:14:56.826Z,12.84
2022-10-02T08:17:33.984Z,12.88
2022-10-02T08:20:07.730Z,13.01
2022-10-02T08:22:39.068Z,13.10
2022-10-02T08:25:14.690Z,13.13
2022-10-02T08:27:54.175Z,13.17
2022-10-02T08:30:21.318Z,13.27
2022-10-02T08:32:48.203Z,13.32
2022-10-02T08:35:17.524Z,13.32
2022-10-02T08:38:12.781Z,13.41
2022-10-02T08:40:49.204Z,13.39
2022-10-02T08:43:31.796Z,13.50
2022-10-02T08:46:17.254Z,13.40
2022-10-02T08:49:13.201Z,13.33
2022-10-02T08:52:05.481Z,13.31
2022-10-02T08:54:49.649Z,13.36
2022-10-02T08:57:37.859Z,13.33
2022-10-02T09:00:14.440Z,13.28
2022-10-02T09:03:05.866Z,13.26
2022-10-02T09:05:57.278Z,13.28
2022-10-02T09:08:28.274Z,13.24
2022-10-02T09:11:11.165Z,13.12
2022-10-02T09:13:54.298Z,13.00
2022-10-02T09:16:30.254Z,12.94
2022-10-02T09:19:26.126Z,12.88
2022-10-02T09:21:56.503Z,12.90
2022-10-02T09:24:23.112Z,12.99
2022-10-02T09:27:23.333Z,13.00
2022-10-02T09:30:24.546Z,13.06
2022-10-02T09:33:01.973Z,12.95
2022-10-02T09:36:09.941Z,12.95
2022-10-02T09:38:44.801Z,12.83
2022-10-02T09:41:35.389Z,12.78
2022-10-02T09:44:47.297Z,12.54
2022-10-02T09:47:49.985Z,12.49
2022-10-02T09:50:42.703Z,12.56
2022-10-02T09:53:32.432Z,12.46
2022-10-02T09:56:25.758Z,12.40
2022-10-02T09:59:04.726Z,12.53
2022-10-02T10:01:50.219Z,12.60
2022-10-02T10:05:04.063Z,12.68
2022-10-02T10:07:53.765Z,12.80
2022-10-02T10:10:41.475Z,12.92
2022-10-02T10:13:13.803Z,12.93
2022-10-02T10:16:19.184Z,12.93
2022-10-02T10:19:13.450Z,12.90
2022-10-02T10:22:17.462Z,12.77
2022-10-02T10:25:16.773Z,12.64
2022-10-02T10:27:55.662Z,12.58
2022-10-02T10:30:44.478Z,12.83
2022-10-02T10:33:35.114Z,13.18
2022-10-02T10:36:30.918Z,13.59
2022-10-02T10:39:22.496Z,13.89
2022-10-02T10:41:55.957Z,14.25
2022-10-02T10:44:48.858Z,14.46
2022-10-02T10:47:25.160Z,14.45
2022-10-02T10:50:05.322Z,14.70
2022-10-02T10:53:17.886Z,14.75
2022-10-02T10:56:13.388Z,14.90
2022-10-02T10:58:54.027Z,14.87
2022-10-02T11:01:23.376Z,14.96
2022-10-02T11:04:08.938Z,15.08
2022-10-02T11:07:11.948Z,15.11
2022-10-02T11:09:53.775Z,15.25
2022-10-02T11:12:44.657Z,15.20
2022-10-02T11:15:38.219Z,15.42
2022-10-02T11:18:42.924Z,15.53
2022-10-02T11:21:31.152Z,15.61
2022-10-02T11:24:27.028Z,15.65
2022-10-02T11:27:27.811Z,15.74
2022-10-02T11:30:23.435Z,15.61
2022-10-02T11:33:15.230Z,15.77
2022-10-02T11:36:19.683Z,15.90
2022-10-02T11:39:08.193Z,15.81
2022-10-02T11:42:12.711Z,15.76
2022-10-02T11:45:02.729Z,15.89
2022-10-02T11:47:49.004Z,15.88
2022-10-02T11:50:36.237Z,15.77
2022-10-02T11:53:23.560Z,16.11
2022-10-02T11:56:01.319Z,16.10
2022-10-02T11:58:52.936Z,15.91
2022-10-02T12:01:31.768Z,15.94
2022-10-02T12:04:10.676Z,15.73
2022-10-02T12:06:51.605Z,15.72
2022-10-02T12:09:43.921Z,15.52
2022-10-02T12:12:32.730Z,15.60
2022-10-02T12:15:35.547Z,15.53
2022-10-02T12:18:16.111Z,15.63
2022-10-02T12:21:14.804Z,15.80
2022-10-02T12:24:26.201Z,15.75
2022-10-02T12:26:58.938Z,15.92
2022-10-02T12:29:40.953Z,15.90
2022-10-02T12:32:37.555Z,16.02
2022-10-02T12:35:20.817Z,16.18
2022-10-02T12:38:08.099Z,15.96
2022-10-02T12:40:47.115Z,16.26
2022-10-02T12:43:43.135Z,16.08
2022-10-02T12:46:27.551Z,15.95
2022-10-02T12:49:04.157Z,15.86
2022-10-02T12:51:49.272Z,15.79
2022-10-02T12:54:49.999Z,15.51
2022-10-02T12:57:55.157Z,15.12
2022-10-02T13:00:31.315Z,15.14
2022-10-02T13:03:26.452Z,15.03
2022-10-02T13:06:19.156Z,14.92
2022-10-02T13:09:03.175Z,14.90
2022-10-02T13:11:55.681Z,14.86
2022-10-02T13:14:45.700Z,14.86
2022-10-02T13:17:28.933Z,14.85
2022-10-02T13:20:02.814Z,14.91
2022-10-02T13:22:59.036Z,15.23
2022-10-02T13:25:59.084Z,15.23
2022-10-02T13:28:58.189Z,15.17
2022-10-02T13:31:39.690Z,15.10
2022-10-02T13:34:19.520Z,15.10
2022-10-02T13:37:00.311Z,14.99
2022-10-02T13:39:32.669Z,14.91
2022-10-02T13:42:15.958Z,14.95
2022-10-02T13:44:59.133Z,15.05
2022-10-02T13:47:44.051Z,15.14
2022-10-02T13:50:46.626Z,15.24
2022-10-02T13:53:20.642Z,15.19
2022-10-02T13:55:57.508Z,15.17
2022-10-02T13:59:03.359Z,15.02
2022-10-02T14:01:59.303Z,14.96
2022-10-02T14:04:44.250Z,14.89
2022-10-02T14:07:26.215Z,14.86
2022-10-02T14:10:11.918Z,14.85
2022-10-02T14:13:10.067Z,14.71
2022-10-02T14:15:51.000Z,14.63
2022-10-02T14:18:45.691Z,14.60
2022-10-02T14:21:20.650Z,14.75
2022-10-02T14:24:02.382Z,14.63
2022-10-02T14:26:48.181Z,14.75
2022-10-02T14:29:45.710Z,14.93
2022-10-02T14:32:21.843Z,15.03
2022-10-02T14:35:12.143Z,15.13
2022-10-02T14:37:55.286Z,15.20
2022-10-02T14:40:31.138Z,15.27
2022-10-02T14:43:16.609Z,15.38
2022-10-02T14:45:57.737Z,15.33
2022-10-02T14:48:56.228Z,15.29
2022-10-02T14:51:52.205Z,15.23
2022-10-02T14:54:50.455Z,15.24
2022-10-02T14:57:45.612Z,15.18
2022-10-02T15:00:22.477Z,15.28
2022-10-02T15:03:10.189Z,15.20
2022-10-02T15:06:09.649Z,15.10
2022-10-02T15:08:43.310Z,15.05
2022-10-02T15:11:25.861Z,15.15
2022-10-02T15:14:07.887Z,14.87
2022-10-02T15:17:01.687Z,14.81
2022-10-02T15:19:49.957Z,14.90
2022-10-02T15:22:24.839Z,14.89
2022-10-02T15:24:57.376Z,14.85
2022-10-02T15:27:26.892Z,14.74
2022-10-02T15:30:15.689Z,14.58
2022-10-02T15:33:19.793Z,14.48
2022-10-02T15:36:07.114Z,14.35
2022-10-02T15:38:45.867Z,14.38
2022-10-02T15:41:12.374Z,14.25
2022-10-02T15:44:06.786Z,14.06
2022-10-02T15:46:55.268Z,13.99
2022-10-02T15:49:34.463Z,13.98
2022-10-02T15:52:14.547Z,13.87
2022-10-02T15:55:06.723Z,13.73
2022-10-02T15:57:39.733Z,13.98
2022-10-02T16:00:11.768Z,13.97
2022-10-02T16:02:53.717Z,13.95
2022-10-02T16:05:30.861Z,14.01
2022-10-02T16:08:11.107Z,14.08
2022-10-02T16:10:50.656Z,14.00
2022-10-02T16:13:44.865Z,13.91
2022-10-02T16:16:32.151Z,13.81
2022-10-02T16:19:07.358Z,13.76
2022-10-02T16:22:17.036Z,13.72
2022-10-02T16:25:19.022Z,13.70
2022-10-02T16:27:52.699Z,13.70
2022-10-02T16:30:24.194Z,13.48
2022-10-02T16:33:04.163Z,13.37
2022-10-02T16:35:50.457Z,13.23
2022-10-02T16:38:38.287Z,13.13
2022-10-02T16:41:17.307Z,12.94
2022-10-02T16:44:02.912Z,12.85
2022-10-02T16:46:50.799Z,12.77
2022-10-02T16:49:51.441Z,12.62
2022-10-02T16:52:43.207Z,12.47
2022-10-02T16:55:31.924Z,12.39
2022-10-02T16:58:31.167Z,12.37
2022-10-02T17:01:02.229Z,12.20
2022-10-02T17:03:33.546Z,12.16
2022-10-02T17:06:16.210Z,12.02
2022-10-02T17:08:53.810Z,11.92
2022-10-02T17:11:34.684Z,11.84
2022-10-02T17:14:02.010Z,11.79
2022-10-02T17:16:37.547Z,11.55
2022-10-02T17:19:28.237Z,11.57
2022-10-02T17:22:09.921Z,11.58
2022-10-02T17:25:01.262Z,11.51
2022-10-02T17:27:41.789Z,11.33
2022-10-02T17:30:09.252Z,11.26
2022-10-02T17:32:51.142Z,11.16
2022-10-02T17:35:34.385Z,11.13
2022-10-02T17:38:24.574Z,11.20
2022-10-02T17:41:06.050Z,10.97
2022-10-02T17:44:11.333Z,10.86
2022-10-02T17:46:43.774Z,10.79
2022-10-02T17:49:32.153Z,10.76
2022-10-02T17:52:52.651Z,10.67
2022-10-02T17:55:38.065Z,10.61
2022-10-02T17:58:31.041Z,10.64
2022-10-02T18:01:07.750Z,10.67
2022-10-02T18:04:11.491Z,10.75
2022-10-02T18:06:59.999Z,10.71
2022-10-02T18:09:37.876Z,10.84
2022-10-02T18:12:11.467Z,11.00
2022-10-02T18:14:56.839Z,11.05
2022-10-02T18:17:32.900Z,11.13
2022-10-02T18:20:04.581Z,11.23
2022-10-02T18:22:50.278Z,11.19
2022-10-02T18:25:41.905Z,11.23
2022-10-02T18:28:39.853Z,11.18
2022-10-02T18:31:13.141Z,11.05
2022-10-02T18:34:06.162Z,11.06
2022-10-02T18:36:36.475Z,11.03
2022-10-02T18:39:27.698Z,10.98
2022-10-02T18:42:16.105Z,10.99
2022-10-02T18:44:56.049Z,10.96
2022-10-02T18:47:41.418Z,10.97
2022-10-02T18:50:29.755Z,10.95
2022-10-02T18:53:09.540Z,11.07
2022-10-02T18:56:04.083Z,11.15
2022-10-02T18:58:52.666Z,11.12
2022-10-02T19:01:38.201Z,11.14
2022-10-02T19:04:45.405Z,11.19
2022-10-02T19:07:18.663Z,11.23
2022-10-02T19:09:46.232Z,11.22
2022-10-02T19:12:15.869Z,11.14
2022-10-02T19:14:47.718Z,11.11
2022-10-02T19:17:17.928Z,11.12
2022-10-02T19:19:44.892Z,11.26
2022-10-02T19:22:18.690Z,11.15
2022-10-02T19:24:48.361Z,11.14
2022-10-02T19:27:29.965Z,11.00
2022-10-02T19:29:59.028Z,11.06
2022-10-02T19:32:32.527Z,11.00
2022-10-02T19:35:03.235Z,11.09
2022-10-02T19:37:31.493Z,10.96
2022-10-02T19:40:01.447Z,10.94
2022-10-02T19:42:29.867Z,10.90
2022-10-02T19:45:03.876Z,10.88
2022-10-02T19:47:39.834Z,10.93
2022-10-02T19:50:19.209Z,10.90
2022-10-02T19:52:51.026Z,11.07
2022-10-02T19:55:23.591Z,10.95
2022-10-02T19:57:52.616Z,10.89
2022-10-02T20:00:19.644Z,10.88
2022-10-02T20:02:54.705Z,10.70
2022-10-02T20:05:26.269Z,10.74
2022-10-02T20:07:57.531Z,10.67
2022-10-02T20:10:27.240Z,10.83
2022-10-02T20:13:13.464Z,10.88
2022-10-02T20:16:01.925Z,10.76
2022-10-02T20:18:28.908Z,10.78
2022-10-02T20:21:11.043Z,10.73
2022-10-02T20:23:38.707Z,10.66
2022-10-02T20:26:08.886Z,10.70
2022-10-02T20:28:43.789Z,10.66
2022-10-02T20:31:17.959Z,10.68
2022-10-02T20:33:48.796Z,10.69
2022-10-02T20:36:22.452Z,10.62
2022-10-02T20:38:57.548Z,10.49
2022-10-02T20:41:29.144Z,10.52
2022-10-02T20:44:10.556Z,10.56
2022-10-02T20:46:56.539Z,10.59
2022-10-02T20:49:52.082Z,10.56
2022-10-02T20:52:27.826Z,10.58
2022-10-02T20:55:23.870Z,10.56
2022-10-02T20:58:01.372Z,10.39
2022-10-02T21:00:37.287Z,10.30
2022-10-02T21:03:23.702Z,10.30
2022-10-02T21:06:12.764Z,10.35
2022-10-02T21:08:56.957Z,10.34
2022-10-02T21:11:46.174Z,10.38
2022-10-02T21:14:44.948Z,10.32
2022-10-02T21:17:30.607Z,10.30
2022-10-02T21:20:50.937Z,10.23
2022-10-02T21:23:36.970Z,10.15
2022-10-02T21:26:14.965Z,10.37
2022-10-02T21:29:10.433Z,10.16
2022-10-02T21:32:08.075Z,10.10
2022-10-02T21:35:08.381Z,10.08
2022-10-02T21:37:56.274Z,10.04
2022-10-02T21:40:54.127Z,10.10
2022-10-02T21:43:53.144Z,10.05
2022-10-02T21:46:44.043Z,10.06
2022-10-02T21:49:26.102Z,10.00
2022-10-02T21:52:37.311Z,10.14
2022-10-02T21:55:19.756Z,9.99
2022-10-02T21:58:16.682Z,10.08
2022-10-02T22:01:12.412Z,9.98
2022-10-02T22:03:48.298Z,10.00
2022-10-02T22:06:21.027Z,9.95
2022-10-02T22:09:06.114Z,9.96
2022-10-02T22:11:46.002Z,9.97
2022-10-02T22:14:33.777Z,9.90
2022-10-02T22:17:13.041Z,9.92
2022-10-02T22:20:18.935Z,9.90
2022-10-02T22:23:20.631Z,9.86
2022-10-02T22:25:56.337Z,9.80
2022-10-02T22:28:45.741Z,9.80
2022-10-02T22:31:33.835Z,9.72
2022-10-02T22:34:13.283Z,9.70
2022-10-02T22:37:17.310Z,9.75
2022-10-02T22:39:53.774Z,9.79
2022-10-02T22:42:29.719Z,9.78
2022-10-02T22:45:03.813Z,9.76
2022-10-02T22:47:37.570Z,9.73
2022-10-02T22:50:11.935Z,9.72
2022-10-02T22:53:03.006Z,9.73
2022-10-02T22:55:34.261Z,9.84
2022-10-02T22:58:21.830Z,9.81
2022-10-02T23:00:58.102Z,9.84
2022-10-02T23:03:31.631Z,9.71
2022-10-02T23:06:04.998Z,9.78
2022-10-02T23:08:37.784Z,9.81
2022-10-02T23:11:09.446Z,9.85
2022-10-02T23:14:00.263Z,9.86
2022-10-02T23:16:35.245Z,9.88
2022-10-02T23:19:12.669Z,9.98
2022-10-02T23:21:53.537Z,9.96
2022-10-02T23:24:20.040Z,9.97
2022-10-02T23:27:04.040Z,9.99
2022-10-02T23:29:55.517Z,10.16
2022-10-02T23:32:27.774Z,10.13
2022-10-02T23:35:21.155Z,10.16
2022-10-02T23:38:12.503Z,10.27
2022-10-02T23:41:27.264Z,10.31
2022-10-02T23:44:07.338Z,10.22
2022-10-02T23:47:16.514Z,10.16
2022-10-02T23:49:56.051Z,10.14
2022-10-02T23:52:44.210Z,10.16
2022-10-02T23:55:31.639Z,10.11
2022-10-02T23:58:04.409Z,10.13
